Time;durP1;ratioP1;P1;durP2;ratioP2;P2;SDS_P1;SDS_P2;PMS_P1;PMS_P2;Temp;Humidity;BMP_temperature;BMP_pressure;BME280_temperature;BME280_humidity;BME280_pressure;Samples;Min_cycle;Max_cycle;Signal;HPM_P1;HPM_P2
2021/07/02 00:00:07;;;;;;;9.50;4.87;;;;;;;15.37;82.47;97770.41;1710976;83;20949;-81
2021/07/02 00:02:35;;;;;;;10.53;5.62;;;;;;;15.34;82.95;97771.84;1715669;82;21491;-81
2021/07/02 00:05:03;;;;;;;9.30;5.42;;;;;;;15.37;83.25;97769.04;1715924;83;20905;-81
2021/07/02 00:07:29;;;;;;;7.90;5.40;;;;;;;15.40;83.76;97766.50;1711244;82;21138;-81
2021/07/02 00:09:55;;;;;;;7.50;4.85;;;;;;;15.41;82.58;97764.57;1715753;83;20940;-87
2021/07/02 00:12:21;;;;;;;7.72;4.75;;;;;;;15.39;82.32;97757.27;1715822;82;20951;-86
2021/07/02 00:14:47;;;;;;;7.58;4.80;;;;;;;15.36;82.78;97754.59;1715719;83;20971;-87
2021/07/02 00:17:13;;;;;;;9.43;5.28;;;;;;;15.30;82.49;97759.97;1715940;82;20826;-87
2021/07/02 00:19:39;;;;;;;8.93;4.60;;;;;;;15.24;83.31;97763.39;1716113;83;21814;-87
2021/07/02 00:22:05;;;;;;;9.05;5.58;;;;;;;15.27;82.42;97766.61;1715800;82;20940;-87
2021/07/02 00:24:31;;;;;;;8.50;5.20;;;;;;;15.19;82.77;97762.72;1715741;83;20912;-87
2021/07/02 00:26:57;;;;;;;7.83;4.62;;;;;;;15.14;83.49;97762.88;1715835;82;20896;-81
2021/07/02 00:29:23;;;;;;;9.95;5.10;;;;;;;15.13;83.77;97767.53;1715983;83;20876;-87
2021/07/02 00:31:49;;;;;;;8.20;4.87;;;;;;;15.07;84.63;97771.52;1715975;82;21012;-81
2021/07/02 00:34:15;;;;;;;8.23;5.00;;;;;;;15.06;83.41;97771.83;1715786;83;21419;-81
2021/07/02 00:36:41;;;;;;;7.97;4.45;;;;;;;14.99;84.33;97770.91;1715870;82;21039;-81
2021/07/02 00:39:08;;;;;;;12.93;5.03;;;;;;;14.92;84.92;97765.91;1716125;83;20932;-81
2021/07/02 00:41:35;;;;;;;14.47;5.75;;;;;;;14.92;83.97;97764.54;1715898;82;21441;-81
2021/07/02 00:44:01;;;;;;;6.00;4.28;;;;;;;14.92;83.55;97770.00;1715911;83;21140;-87
2021/07/02 00:49:09;;;;;;;7.67;4.92;;;;;;;14.94;84.38;97766.95;1853519;76;22397;-87
2021/07/02 00:51:36;;;;;;;10.60;5.45;;;;;;;14.83;85.16;97767.78;1816936;78;21399;-82
2021/07/02 00:54:01;;;;;;;11.70;6.00;;;;;;;14.84;85.31;97769.39;1813448;79;21952;-81
2021/07/02 00:56:27;;;;;;;9.40;6.87;;;;;;;14.79;85.01;97766.81;1813714;79;20818;-81
2021/07/02 00:58:54;;;;;;;9.83;5.40;;;;;;;14.74;84.09;97768.30;1813805;79;20850;-81
2021/07/02 01:01:20;;;;;;;7.78;4.87;;;;;;;14.67;84.06;97769.30;1813782;78;21314;-82
2021/07/02 01:03:48;;;;;;;8.48;5.20;;;;;;;14.64;85.01;97768.01;1813513;79;20812;-81
2021/07/02 01:06:15;;;;;;;;;;;;;;;14.67;84.69;97766.02;1813651;79;21123;-84
2021/07/02 01:08:43;;;;;;;11.00;5.20;;;;;;;14.74;84.10;97772.39;1813798;78;20133;-88
2021/07/02 01:11:10;;;;;;;7.35;5.12;;;;;;;14.72;85.77;97772.47;1813708;79;20895;-88
2021/07/02 01:13:36;;;;;;;7.25;4.22;;;;;;;14.71;83.64;97777.12;1813576;79;20915;-81
2021/07/02 01:16:02;;;;;;;8.28;4.78;;;;;;;14.68;85.93;97773.63;1813798;79;20902;-82
2021/07/02 01:18:28;;;;;;;7.37;4.53;;;;;;;14.72;85.67;97772.47;1783936;79;21712;-87
2021/07/02 01:20:56;;;;;;;9.90;5.55;;;;;;;14.78;85.40;97758.92;1813954;79;21017;-88
2021/07/02 01:23:21;;;;;;;9.78;4.40;;;;;;;14.82;85.51;97755.83;1813724;78;21378;-82
2021/07/02 01:25:47;;;;;;;11.15;5.35;;;;;;;14.82;85.91;97752.55;1813776;79;20862;-88
2021/07/02 01:28:15;;;;;;;8.30;5.20;;;;;;;14.80;84.41;97749.89;1784436;79;20942;-81
2021/07/02 01:30:41;;;;;;;9.00;4.78;;;;;;;14.75;84.47;97759.00;1814048;78;21258;-81
2021/07/02 01:33:09;;;;;;;8.83;4.15;;;;;;;14.71;85.46;97756.66;1813497;79;21299;-87
2021/07/02 01:35:35;;;;;;;13.95;5.05;;;;;;;14.71;84.87;97745.76;1813906;78;20887;-87
2021/07/02 01:38:01;;;;;;;8.38;4.53;;;;;;;14.70;84.21;97747.41;1813602;79;21452;-87
2021/07/02 01:40:27;;;;;;;5.55;3.35;;;;;;;14.72;84.25;97750.09;1813776;79;20887;-82
2021/07/02 01:42:53;;;;;;;10.05;4.00;;;;;;;14.74;84.54;97746.48;1813569;78;21508;-88
2021/07/02 01:45:19;;;;;;;6.33;4.53;;;;;;;14.75;84.64;97744.00;1814089;79;20830;-81
2021/07/02 01:47:45;;;;;;;7.17;4.33;;;;;;;14.76;85.28;97739.34;1812969;79;20874;-88
2021/07/02 01:50:11;;;;;;;7.40;4.42;;;;;;;14.79;85.08;97738.17;1812348;78;21482;-87
2021/07/02 01:52:38;;;;;;;12.55;4.92;;;;;;;14.77;84.19;97737.66;1786937;79;20871;-88
2021/07/02 01:55:05;;;;;;;11.70;5.00;;;;;;;14.75;84.84;97734.45;1812167;78;21083;-87
2021/07/02 01:57:31;;;;;;;6.28;4.03;;;;;;;14.77;84.53;97737.66;1812147;79;21017;-81
2021/07/02 01:59:57;;;;;;;11.68;4.15;;;;;;;14.79;86.04;97737.37;1811896;79;20949;-88
2021/07/02 02:02:23;;;;;;;5.83;3.67;;;;;;;14.83;85.60;97744.59;1811399;79;20913;-87
2021/07/02 02:04:49;;;;;;;6.65;4.60;;;;;;;14.82;85.27;97741.63;1811747;79;20935;-82
2021/07/02 02:07:15;;;;;;;8.08;3.98;;;;;;;14.83;85.59;97746.53;1811374;79;20984;-81
2021/07/02 02:09:41;;;;;;;8.30;4.53;;;;;;;14.90;85.23;97745.52;1811757;79;20894;-87
2021/07/02 02:12:08;;;;;;;14.50;5.33;;;;;;;14.92;85.60;97745.44;1811394;79;21551;-87
2021/07/02 02:14:34;;;;;;;7.10;3.92;;;;;;;14.98;85.57;97735.20;1786578;79;20937;-82
2021/07/02 02:17:00;;;;;;;8.03;4.47;;;;;;;15.02;86.19;97737.53;1786895;79;20876;-81
2021/07/02 02:19:26;;;;;;;8.65;3.92;;;;;;;15.02;85.54;97742.19;1811419;79;22176;-81
2021/07/02 02:21:52;;;;;;;6.72;3.98;;;;;;;14.94;86.06;97744.56;1811457;79;20921;-81
2021/07/02 02:24:18;;;;;;;5.72;4.00;;;;;;;14.94;86.56;97743.20;1811413;79;20839;-81
2021/07/02 02:26:44;;;;;;;8.25;4.10;;;;;;;14.97;85.74;97739.63;1811592;79;21359;-81
2021/07/02 02:29:11;;;;;;;6.30;4.05;;;;;;;14.97;85.48;97739.05;1811359;78;21036;-88
2021/07/02 02:31:37;;;;;;;5.67;4.20;;;;;;;14.93;86.87;97744.32;1811607;79;20907;-82
2021/07/02 02:34:03;;;;;;;8.83;4.40;;;;;;;14.93;86.27;97739.42;1811490;78;20898;-81
2021/07/02 02:36:29;;;;;;;6.08;3.67;;;;;;;14.91;86.67;97741.11;1811541;79;20958;-87
2021/07/02 02:38:55;;;;;;;8.10;4.05;;;;;;;14.91;86.38;97739.75;1811507;79;20901;-81
2021/07/02 02:41:21;;;;;;;6.45;3.60;;;;;;;14.86;86.62;97728.96;1811634;79;21063;-82
2021/07/02 02:43:47;;;;;;;7.80;3.90;;;;;;;14.91;86.32;97740.30;1786335;79;21358;-81
2021/07/02 02:46:13;;;;;;;6.65;3.58;;;;;;;14.96;86.27;97742.91;1786256;79;20966;-87
2021/07/02 02:48:39;;;;;;;10.95;4.05;;;;;;;14.98;85.25;97739.86;1812177;78;20866;-81
2021/07/02 02:51:05;;;;;;;8.50;4.37;;;;;;;14.93;85.18;97748.41;1810267;78;21387;-88
2021/07/02 02:53:31;;;;;;;9.65;4.67;;;;;;;14.95;85.44;97748.09;1783494;79;21471;-88
2021/07/02 02:55:57;;;;;;;7.72;4.22;;;;;;;14.95;84.84;97746.73;1783721;79;21775;-88
2021/07/02 02:58:23;;;;;;;10.50;5.92;;;;;;;14.91;85.55;97747.93;1812809;79;20925;-81
2021/07/02 03:00:50;;;;;;;6.15;4.25;;;;;;;14.90;85.63;97748.25;1813119;79;20827;-87
2021/07/02 03:03:16;;;;;;;7.25;4.62;;;;;;;14.95;85.83;97750.82;1813013;79;20923;-88
2021/07/02 03:05:42;;;;;;;10.10;4.90;;;;;;;14.94;85.75;97754.11;1813070;79;20902;-81
2021/07/02 03:08:08;;;;;;;6.40;4.03;;;;;;;14.98;85.75;97746.68;1812985;79;21723;-82
2021/07/02 03:10:34;;;;;;;6.00;3.42;;;;;;;15.04;85.69;97757.14;1813008;79;20890;-82
2021/07/02 03:13:00;;;;;;;6.80;3.90;;;;;;;15.07;85.60;97748.32;1813136;78;21273;-81
2021/07/02 03:15:27;;;;;;;7.17;4.40;;;;;;;15.09;85.80;97749.36;1813227;79;20946;-81
2021/07/02 03:17:53;;;;;;;8.68;4.47;;;;;;;15.15;86.00;97751.64;1812771;78;20847;-88
2021/07/02 03:20:19;;;;;;;7.22;3.67;;;;;;;15.17;85.31;97756.22;1812851;79;21982;-88
2021/07/02 03:22:45;;;;;;;7.47;4.33;;;;;;;15.22;85.75;97762.91;1812766;79;20850;-82
2021/07/02 03:25:11;;;;;;;8.38;4.67;;;;;;;15.27;85.65;97761.95;1813662;79;20846;-88
2021/07/02 03:27:38;;;;;;;7.58;3.92;;;;;;;15.30;85.07;97764.06;1812826;78;21367;-81
2021/07/02 03:30:10;;;;;;;13.22;8.83;;;;;;;15.30;85.73;97769.52;1810229;79;20974;-88
2021/07/02 03:32:36;;;;;;;8.20;4.62;;;;;;;15.30;85.55;97774.18;1810148;78;21214;-82
2021/07/02 03:35:04;;;;;;;6.95;3.98;;;;;;;15.30;85.65;97770.09;1813201;79;21485;-88
2021/07/02 03:37:30;;;;;;;11.30;3.60;;;;;;;15.35;85.32;97768.56;1812736;79;20886;-88
2021/07/02 03:39:56;;;;;;;7.67;4.33;;;;;;;15.37;85.75;97770.41;1812991;79;20902;-82
2021/07/02 03:42:22;;;;;;;9.58;4.10;;;;;;;15.37;85.56;97770.41;1812971;79;20997;-82
2021/07/02 03:44:48;;;;;;;7.12;4.15;;;;;;;15.37;85.07;97772.57;1812712;79;21869;-82
2021/07/02 03:47:14;;;;;;;6.78;4.15;;;;;;;15.36;85.09;97776.42;1812745;79;20926;-88
2021/07/02 03:49:40;;;;;;;7.53;4.30;;;;;;;15.38;85.05;97772.02;1812779;78;20881;-87
2021/07/02 03:52:07;;;;;;;5.60;3.72;;;;;;;15.42;85.47;97773.00;1812934;79;21304;-88
2021/07/02 03:54:33;;;;;;;8.83;4.12;;;;;;;15.41;85.26;97776.86;1783673;79;21014;-88
2021/07/02 03:57:19;;;;;;;7.33;4.42;;;;;;;15.41;85.17;97776.86;1812734;79;21061;-88
2021/07/02 03:59:26;;;;;;;6.22;4.37;;;;;;;15.41;85.25;97778.22;1801544;79;20882;-88
2021/07/02 04:01:52;;;;;;;6.20;4.08;;;;;;;15.46;84.96;97778.86;1783521;79;20973;-82
2021/07/02 04:04:19;;;;;;;7.70;4.65;;;;;;;15.48;84.38;97772.55;1813033;79;20858;-88
2021/07/02 04:06:44;;;;;;;10.10;4.30;;;;;;;15.53;84.41;97773.74;1783726;79;20962;-82
2021/07/02 04:09:11;;;;;;;7.67;4.60;;;;;;;15.60;83.96;97765.66;1812936;79;21090;-82
2021/07/02 04:11:37;;;;;;;19.40;5.20;;;;;;;15.57;83.87;97764.94;1812817;79;21382;-82
2021/07/02 04:14:03;;;;;;;8.48;4.80;;;;;;;15.61;84.09;97765.92;1812896;79;21445;-83
2021/07/02 04:16:30;;;;;;;4.90;4.10;;;;;;;15.69;83.97;97767.30;1812922;79;20902;-83
2021/07/02 04:18:56;;;;;;;11.45;3.65;;;;;;;15.77;83.77;97761.05;1812961;79;20800;-79
2021/07/02 04:21:23;;;;;;;7.35;3.87;;;;;;;15.85;83.63;97761.39;1812936;78;21046;-79
2021/07/02 04:23:49;;;;;;;6.62;3.87;;;;;;;15.86;84.07;97765.72;1812840;79;21343;-80
2021/07/02 04:26:15;;;;;;;6.12;3.90;;;;;;;15.88;83.68;97761.54;1812898;79;20918;-79
2021/07/02 04:28:41;;;;;;;9.45;4.17;;;;;;;15.89;84.27;97763.14;1813061;79;20854;-85
2021/07/02 04:31:07;;;;;;;7.47;4.83;;;;;;;15.87;84.69;97768.69;1812945;79;20889;-85
2021/07/02 04:33:33;;;;;;;7.97;4.37;;;;;;;15.92;84.13;97765.25;1812922;79;21846;-79
2021/07/02 04:35:59;;;;;;;10.18;4.83;;;;;;;15.86;84.83;97765.72;1812909;79;20904;-80
2021/07/02 04:38:25;;;;;;;8.90;4.85;;;;;;;15.89;84.46;97767.80;1812953;79;20874;-80
2021/07/02 04:40:51;;;;;;;9.65;4.15;;;;;;;15.83;85.90;97766.38;1813008;79;21136;-80
2021/07/02 04:43:17;;;;;;;10.20;4.72;;;;;;;15.79;85.44;97773.02;1812964;79;21300;-80
2021/07/02 04:45:46;;;;;;;7.00;4.97;;;;;;;15.73;84.76;97768.30;1813040;79;21183;-86
2021/07/02 04:48:11;;;;;;;7.23;4.83;;;;;;;15.76;84.41;97773.67;1813069;78;21425;-82
2021/07/02 04:50:37;;;;;;;8.53;5.15;;;;;;;15.79;84.25;97779.84;1783256;79;21322;-81
2021/07/02 04:53:03;;;;;;;7.87;5.80;;;;;;;15.82;84.24;97776.50;1812953;79;20994;-81
2021/07/02 04:55:29;;;;;;;8.03;5.40;;;;;;;15.86;84.19;97778.82;1783587;79;20966;-87
2021/07/02 04:57:55;;;;;;;8.53;5.50;;;;;;;15.91;84.18;97784.70;1813049;79;21247;-87
2021/07/02 05:00:24;;;;;;;9.08;5.62;;;;;;;15.93;84.15;97781.89;1812983;79;20874;-81
2021/07/02 05:02:49;;;;;;;13.47;7.63;;;;;;;15.96;84.17;97783.97;1812709;79;20903;-81
2021/07/02 05:05:15;;;;;;;15.35;6.28;;;;;;;15.98;84.22;97789.94;1813134;78;20831;-81
2021/07/02 05:07:41;;;;;;;7.50;5.08;;;;;;;15.99;84.32;97794.28;1812739;79;20941;-81
2021/07/02 05:10:08;;;;;;;10.30;6.33;;;;;;;16.04;84.57;97792.73;1809832;79;21179;-81
2021/07/02 05:12:34;;;;;;;8.85;5.65;;;;;;;15.99;84.58;97793.48;1812740;79;21002;-81
2021/07/02 05:15:00;;;;;;;7.58;5.40;;;;;;;15.98;84.55;97793.20;1783246;79;21558;-88
2021/07/02 05:17:26;;;;;;;5.78;4.45;;;;;;;15.97;84.66;97805.27;1812797;79;20819;-87
2021/07/02 05:19:52;;;;;;;9.25;5.90;;;;;;;15.87;85.12;97804.21;1812783;79;20990;-87
2021/07/02 05:22:21;;;;;;;10.13;5.40;;;;;;;15.70;85.85;97813.98;1812708;78;21982;-87
2021/07/02 05:24:47;;;;;;;;;;;;;;;15.55;85.72;97815.75;1786787;79;20922;-83
2021/07/02 05:27:14;;;;;;;9.25;5.85;;;;;;;15.52;85.97;97813.09;1812779;78;20417;-81
2021/07/02 05:29:40;;;;;;;11.33;6.22;;;;;;;15.55;85.98;97811.65;1812679;78;20946;-81
2021/07/02 05:32:06;;;;;;;8.43;5.20;;;;;;;15.52;85.96;97809.00;1809908;79;20919;-81
2021/07/02 05:34:33;;;;;;;10.20;5.92;;;;;;;15.53;86.29;97817.44;1812880;79;21110;-81
2021/07/02 05:37:00;;;;;;;8.85;5.30;;;;;;;15.54;86.25;97827.80;1812737;78;21005;-86
2021/07/02 05:39:26;;;;;;;7.20;5.20;;;;;;;15.59;87.28;97824.13;1812995;79;20950;-81
2021/07/02 05:41:52;;;;;;;7.40;5.35;;;;;;;15.59;87.83;97826.86;1813085;78;20826;-81
2021/07/02 05:44:18;;;;;;;8.48;6.30;;;;;;;15.63;88.95;97825.12;1813240;79;20871;-81
2021/07/02 05:46:44;;;;;;;9.33;5.62;;;;;;;15.72;87.73;97825.95;1813012;79;22007;-80
2021/07/02 05:49:10;;;;;;;10.53;6.58;;;;;;;15.69;87.53;97830.69;1812082;78;20870;-81
2021/07/02 05:51:36;;;;;;;9.70;6.25;;;;;;;15.69;87.36;97828.76;1811448;79;20903;-81
2021/07/02 05:54:04;;;;;;;9.73;5.62;;;;;;;15.80;87.30;97830.63;1786495;79;20839;-87
2021/07/02 05:56:31;;;;;;;8.55;5.58;;;;;;;15.89;87.10;97826.55;1811625;79;20903;-87
2021/07/02 05:58:57;;;;;;;7.40;5.28;;;;;;;16.00;87.56;97831.41;1811632;79;21294;-88
2021/07/02 06:01:23;;;;;;;9.53;5.70;;;;;;;16.10;87.85;97830.30;1811633;79;20954;-88
2021/07/02 06:03:49;;;;;;;6.40;4.80;;;;;;;16.13;88.83;97831.00;1786636;79;20878;-88
2021/07/02 06:06:15;;;;;;;7.10;4.92;;;;;;;16.14;88.22;97829.08;1786586;79;20811;-82
2021/07/02 06:08:41;;;;;;;7.35;5.25;;;;;;;16.11;88.13;97831.09;1811856;79;20816;-82
2021/07/02 06:11:07;;;;;;;6.97;5.17;;;;;;;16.09;88.27;97838.25;1812038;79;21635;-88
2021/07/02 06:13:34;;;;;;;6.20;4.72;;;;;;;16.04;87.83;97833.73;1811626;79;20946;-82
2021/07/02 06:16:00;;;;;;;6.30;5.28;;;;;;;16.07;87.72;97830.38;1811892;79;20918;-88
2021/07/02 06:18:26;;;;;;;5.60;4.53;;;;;;;16.08;88.34;97836.64;1811769;79;21361;-82
2021/07/02 06:20:52;;;;;;;6.35;5.03;;;;;;;16.08;88.99;97830.62;1786779;79;21545;-82
2021/07/02 06:23:21;;;;;;;6.95;4.75;;;;;;;16.13;88.10;97826.10;1811923;78;21794;-82
2021/07/02 06:25:48;;;;;;;6.60;4.78;;;;;;;16.15;87.91;97828.78;1811296;79;20895;-89
2021/07/02 06:28:13;;;;;;;6.72;5.30;;;;;;;16.17;87.68;97829.26;1811522;79;21382;-82
2021/07/02 06:30:41;;;;;;;7.33;5.70;;;;;;;16.23;87.89;97832.62;1811599;79;20827;-81
2021/07/02 06:33:07;;;;;;;11.12;5.05;;;;;;;16.27;87.61;97829.50;1813258;79;20891;-88
2021/07/02 06:35:33;;;;;;;6.65;5.75;;;;;;;16.29;87.39;97834.88;1811239;79;21264;-82
2021/07/02 06:37:59;;;;;;;5.35;4.47;;;;;;;16.25;88.17;97838.03;1811693;79;20870;-82
2021/07/02 06:40:25;;;;;;;6.03;4.83;;;;;;;16.22;87.38;97838.65;1811340;79;20966;-82
2021/07/02 06:42:51;;;;;;;7.67;5.05;;;;;;;16.17;87.53;97839.39;1811526;79;20988;-82
2021/07/02 06:45:17;;;;;;;8.90;6.42;;;;;;;16.17;87.27;97831.99;1811480;78;20863;-88
2021/07/02 06:47:58;;;;;;;7.20;6.28;;;;;;;16.24;87.48;97841.89;1811467;79;21700;-89
2021/07/02 06:50:25;;;;;;;9.83;7.37;;;;;;;16.35;87.25;97841.00;1814840;78;20998;-88
2021/07/02 06:52:52;;;;;;;9.78;6.12;;;;;;;16.49;86.91;97844.39;1813625;79;21477;-81
2021/07/02 06:55:18;;;;;;;7.80;6.55;;;;;;;16.60;86.89;97842.13;1813719;79;20934;-87
2021/07/02 06:57:45;;;;;;;8.18;6.05;;;;;;;16.66;86.49;97846.28;1815394;79;20950;-87
2021/07/02 07:00:11;;;;;;;7.70;5.92;;;;;;;16.68;86.49;97841.31;1813788;79;21190;-81
2021/07/02 07:02:37;;;;;;;8.20;6.42;;;;;;;16.79;86.27;97840.44;1815294;79;20875;-87
2021/07/02 07:05:04;;;;;;;9.90;7.58;;;;;;;16.87;86.52;97843.73;1813808;79;20913;-84
2021/07/02 07:07:30;;;;;;;10.45;6.83;;;;;;;16.95;86.46;97844.84;1813869;79;20926;-81
2021/07/02 07:09:56;;;;;;;12.45;7.35;;;;;;;16.95;86.12;97841.54;1813639;79;21016;-81
2021/07/02 07:12:22;;;;;;;13.30;8.53;;;;;;;16.98;85.92;97842.81;1813659;79;21128;-81
2021/07/02 07:14:48;;;;;;;10.58;7.83;;;;;;;17.04;85.95;97845.06;1788636;79;20946;-80
2021/07/02 07:17:14;;;;;;;11.25;8.40;;;;;;;17.03;85.99;97846.19;1813797;79;21516;-80
2021/07/02 07:19:40;;;;;;;11.85;8.35;;;;;;;17.05;86.08;97846.66;1813785;79;21074;-87
2021/07/02 07:22:07;;;;;;;10.98;7.25;;;;;;;17.08;85.98;97843.27;1813799;79;20914;-87
2021/07/02 07:24:33;;;;;;;10.80;9.40;;;;;;;17.20;85.91;97838.50;1788633;79;21068;-87
2021/07/02 07:26:59;;;;;;;10.93;8.18;;;;;;;17.15;85.53;97835.36;1813712;79;21288;-88
2021/07/02 07:29:25;;;;;;;10.25;6.97;;;;;;;17.18;85.71;97838.83;1813895;79;20911;-87
2021/07/02 07:31:53;;;;;;;7.67;6.40;;;;;;;17.11;85.04;97840.46;1813538;79;21028;-81
2021/07/02 07:34:26;;;;;;;9.05;7.92;;;;;;;17.06;84.91;97842.80;1814080;79;20895;-80
2021/07/02 07:36:55;;;;;;;10.03;7.67;;;;;;;17.16;84.85;97843.00;1789454;79;21856;-81
2021/07/02 07:39:21;;;;;;;9.05;7.92;;;;;;;17.30;84.70;97839.50;1813556;79;20911;-88
2021/07/02 07:41:47;;;;;;;8.93;7.92;;;;;;;17.32;83.39;97839.97;1813679;79;20946;-88
2021/07/02 07:44:16;;;;;;;12.98;8.70;;;;;;;17.42;83.58;97838.80;1814089;79;21413;-81
2021/07/02 07:46:42;;;;;;;11.63;8.33;;;;;;;17.47;83.41;97846.85;1813843;79;21453;-87
2021/07/02 07:49:08;;;;;;;10.63;7.25;;;;;;;17.51;83.26;97843.67;1813284;78;21288;-88
2021/07/02 07:51:38;;;;;;;9.48;7.55;;;;;;;17.47;83.22;97846.28;1811335;79;21025;-88
2021/07/02 07:54:02;;;;;;;10.60;7.57;;;;;;;17.46;83.33;97850.16;1811613;79;21065;-88
2021/07/02 07:56:30;;;;;;;11.73;6.97;;;;;;;17.57;83.30;97851.95;1811588;79;20933;-89
2021/07/02 07:58:56;;;;;;;13.03;7.87;;;;;;;17.65;83.08;97849.75;1812110;79;20969;-90
2021/07/02 08:01:23;;;;;;;10.40;7.87;;;;;;;17.75;82.55;97854.08;1811512;79;21382;-81
2021/07/02 08:03:52;;;;;;;12.82;7.45;;;;;;;17.81;82.54;97858.81;1811492;79;20989;-90
2021/07/02 08:06:19;;;;;;;10.58;7.67;;;;;;;17.87;82.32;97860.24;1810974;79;20887;-81
2021/07/02 08:08:45;;;;;;;9.80;6.78;;;;;;;17.94;82.24;97851.70;1811638;79;21017;-90
2021/07/02 08:11:15;;;;;;;10.03;6.83;;;;;;;18.06;81.61;97857.86;1811628;79;21061;-90
2021/07/02 08:13:40;;;;;;;10.30;7.17;;;;;;;18.16;81.39;97856.67;1811400;78;21145;-81
2021/07/02 08:16:13;;;;;;;17.67;8.75;;;;;;;18.22;80.97;97851.23;1811303;79;20899;-90
2021/07/02 08:18:34;;;;;;;11.63;7.75;;;;;;;18.30;80.80;97858.02;1808458;79;20998;-89
2021/07/02 08:21:00;;;;;;;11.97;6.87;;;;;;;18.30;80.22;97860.77;1811500;79;20918;-90
2021/07/02 08:23:26;;;;;;;8.58;6.60;;;;;;;18.22;79.59;97863.57;1811651;79;20966;-81
2021/07/02 08:25:52;;;;;;;11.70;6.92;;;;;;;18.13;79.62;97860.09;1811267;79;21097;-81
2021/07/02 08:31:10;;;;;;;10.75;6.83;;;;;;;18.09;79.87;97858.56;1811514;79;20914;-81
2021/07/02 08:33:33;;;;;;;10.30;7.22;;;;;;;18.15;79.91;97864.09;1809221;78;20946;-81
2021/07/02 08:35:59;;;;;;;8.03;6.12;;;;;;;18.26;79.94;97861.18;1811333;79;21300;-81
2021/07/02 08:38:25;;;;;;;7.87;6.30;;;;;;;18.37;79.98;97858.03;1811501;78;20994;-89
2021/07/02 08:40:53;;;;;;;9.30;7.67;;;;;;;18.46;79.55;97867.03;1811711;79;21136;-86
2021/07/02 08:43:21;;;;;;;17.35;8.83;;;;;;;18.59;79.22;97861.83;1813803;79;20997;-81
2021/07/02 08:45:50;;;;;;;11.30;8.90;;;;;;;18.72;78.59;97860.78;1811377;79;20907;-87
2021/07/02 08:48:19;;;;;;;10.57;9.20;;;;;;;18.79;78.46;97861.02;1811540;78;20993;-81
2021/07/02 08:50:48;;;;;;;8.28;7.25;;;;;;;18.81;78.09;97868.38;1811155;78;21091;-89
2021/07/02 08:56:01;;;;;;;;;;;;;;;;;;;;;
2021/07/02 09:03:28;;;;;;;11.08;8.08;;;;;;;18.55;78.45;97871.88;1830640;77;20881;-89
2021/07/02 09:06:13;;;;;;;15.65;7.37;;;;;;;18.52;78.64;97865.67;1799978;78;20894;-81
2021/07/02 09:08:53;;;;;;;;;;;;;;;;;;;;;
2021/07/02 09:11:33;;;;;;;9.70;7.37;;;;;;;18.48;78.76;97868.30;1823603;78;21049;-82
2021/07/02 09:14:03;;;;;;;8.20;6.45;;;;;;;18.52;78.44;97875.27;1822694;78;21047;-82
2021/07/02 09:16:49;;;;;;;;;;;;;;;;;;;;;
2021/07/02 09:19:34;;;;;;;10.40;8.18;;;;;;;18.69;77.87;97869.67;1826507;78;21338;-89
2021/07/02 09:22:18;;;;;;;;;;;;;;;18.68;77.89;97861.78;1833668;78;21367;-81
2021/07/02 09:24:51;;;;;;;7.58;6.30;;;;;;;18.82;78.08;97868.59;1808494;78;20157;-88
2021/07/02 09:27:33;;;;;;;8.70;6.92;;;;;;;19.04;77.84;97867.40;1831329;78;20873;-82
2021/07/02 09:30:11;;;;;;;8.13;6.37;;;;;;;19.10;75.92;97869.38;1832144;78;21217;-89
2021/07/02 09:32:43;;;;;;;8.10;6.47;;;;;;;18.97;75.15;97872.66;1831961;78;20957;-82
2021/07/02 09:35:20;;;;;;;10.30;7.35;;;;;;;19.00;75.40;97870.61;1829240;78;20976;-88
2021/07/02 09:37:46;;;;;;;10.20;8.38;;;;;;;19.03;75.78;97863.05;1824951;78;21047;-82
2021/07/02 09:40:22;;;;;;;11.08;6.90;;;;;;;19.22;75.95;97854.86;1832521;78;21366;-89
2021/07/02 09:43:05;;;;;;;8.98;6.85;;;;;;;19.51;75.59;97857.45;1831998;78;21140;-89
2021/07/02 09:45:41;;;;;;;11.05;6.22;;;;;;;19.95;74.58;97854.38;1831813;78;21122;-89
2021/07/02 09:48:10;;;;;;;8.50;7.70;;;;;;;20.47;73.28;97852.84;1826593;78;21327;-89
2021/07/02 09:50:52;;;;;;;;;;;;;;;;;;;;;
2021/07/02 09:53:13;;;;;;;10.43;6.78;;;;;;;21.25;68.34;97854.21;1813773;78;20922;-82
2021/07/02 09:55:50;;;;;;;8.58;6.40;;;;;;;21.00;68.52;97857.67;1828279;78;20878;-82
2021/07/02 09:58:26;;;;;;;9.50;6.72;;;;;;;21.20;67.63;97854.48;1820784;78;21020;-81
2021/07/02 10:01:16;;;;;;;9.88;6.00;;;;;;;21.05;68.56;97856.05;1812496;78;21088;-82
2021/07/02 10:03:40;;;;;;;7.67;6.22;;;;;;;21.28;68.15;97851.59;1822406;77;20906;-89
2021/07/02 10:06:10;;;;;;;9.65;6.62;;;;;;;21.30;67.48;97847.91;1832318;78;21334;-88
2021/07/02 10:08:38;;;;;;;15.75;6.70;;;;;;;21.64;65.85;97847.78;1831722;78;20879;-80
2021/07/02 10:11:08;;;;;;;7.00;6.30;;;;;;;21.86;64.98;97843.56;1831678;78;20890;-87
2021/07/02 10:13:43;;;;;;;9.35;7.17;;;;;;;21.83;64.83;97845.67;1761342;81;20988;-80
2021/07/02 10:16:22;;;;;;;;;;;;;;;;;;;;;
2021/07/02 10:18:48;;;;;;;7.22;6.53;;;;;;;22.35;62.49;97840.97;1797684;78;21048;-81
2021/07/02 10:21:23;;;;;;;5.87;5.33;;;;;;;22.71;63.35;97836.40;1831916;78;21050;-88
2021/07/02 10:23:49;;;;;;;7.08;5.90;;;;;;;23.28;61.91;97841.67;1826896;78;20993;-81
2021/07/02 10:26:17;;;;;;;9.90;7.10;;;;;;;23.31;59.60;97835.40;1832142;78;21413;-88
2021/07/02 10:28:44;;;;;;;8.88;6.53;;;;;;;23.17;59.96;97829.63;1831839;78;20938;-87
2021/07/02 10:31:13;;;;;;;9.20;6.30;;;;;;;23.15;61.58;97831.14;1831950;78;20941;-88
2021/07/02 10:33:45;;;;;;;;;;;;;;;23.21;60.94;97830.48;1834098;78;21302;-81
2021/07/02 10:36:11;;;;;;;9.75;8.83;;;;;;;23.16;61.48;97832.73;1826792;78;20479;-88
2021/07/02 10:38:41;;;;;;;6.95;6.28;;;;;;;23.21;62.10;97833.83;1831953;78;20893;-88
2021/07/02 10:41:22;;;;;;;7.92;6.80;;;;;;;23.07;61.76;97833.80;1831042;78;20922;-81
2021/07/02 10:44:12;;;;;;;10.23;6.70;;;;;;;22.92;60.40;97833.89;1831889;78;21004;-89
2021/07/02 10:46:50;;;;;;;6.67;5.95;;;;;;;22.75;60.68;97833.14;1832367;78;21111;-81
2021/07/02 10:49:26;;;;;;;6.47;5.73;;;;;;;22.56;61.13;97830.95;1832469;78;20826;-88
2021/07/02 10:51:50;;;;;;;6.28;5.67;;;;;;;22.59;60.10;97832.41;1825899;78;20902;-82
2021/07/02 10:54:24;;;;;;;8.60;7.03;;;;;;;22.22;59.65;97831.45;1831998;78;20886;-82
2021/07/02 10:56:59;;;;;;;31.80;8.83;;;;;;;21.86;61.34;97834.50;1832134;78;20926;-82
2021/07/02 10:59:45;;;;;;;8.05;5.42;;;;;;;21.89;61.78;97837.94;1831988;78;21131;-88
2021/07/02 11:02:26;;;;;;;8.00;6.85;;;;;;;21.72;61.81;97835.56;1830813;77;20969;-81
2021/07/02 11:05:09;;;;;;;;;;;;;;;;;;;;;
2021/07/02 11:07:39;;;;;;;7.55;6.25;;;;;;;21.85;63.34;97830.94;1826721;78;21319;-90
2021/07/02 11:12:59;;;;;;;8.70;6.70;;;;;;;21.85;62.49;97830.14;1776087;78;20933;-90
2021/07/02 11:26:56;;;;;;;9.10;6.10;;;;;;;21.79;61.66;97829.64;1831692;78;20924;-88
2021/07/02 11:29:51;;;;;;;;;;;;;;;;;;;;;
2021/07/02 11:32:25;;;;;;;;;;;;;;;;;;;;;
2021/07/02 11:34:48;;;;;;;7.35;6.60;;;;;;;22.21;61.54;97827.06;1612186;88;21036;-90
2021/07/02 11:37:23;;;;;;;8.60;6.50;;;;;;;22.50;60.99;97816.06;1556841;89;21501;-90
2021/07/02 11:40:06;;;;;;;;;;;;;;;;;;;;;
2021/07/02 11:42:30;;;;;;;8.40;6.62;;;;;;;22.84;57.67;97807.27;1656791;85;21371;-89
2021/07/02 11:47:49;;;;;;;;;;;;;;;;;;;;;
2021/07/02 11:52:47;;;;;;;5.45;4.95;;;;;;;23.14;59.30;97800.53;1474846;95;21109;-82
2021/07/02 11:55:25;;;;;;;6.08;5.30;;;;;;;23.21;57.21;97796.52;1516713;91;21112;-82
2021/07/02 11:57:47;;;;;;;7.22;6.50;;;;;;;23.23;58.17;97795.56;1523061;93;21047;-82
2021/07/02 12:00:25;;;;;;;;;;;;;;;;;;;;;
2021/07/02 12:02:51;;;;;;;5.45;4.95;;;;;;;22.98;57.28;97798.67;1660038;81;21064;-86
2021/07/02 12:05:20;;;;;;;6.60;5.15;;;;;;;22.97;57.42;97789.38;1729457;82;21286;-89
2021/07/02 12:07:54;;;;;;;5.75;5.20;;;;;;;22.71;57.12;97783.92;1665622;86;20993;-81
2021/07/02 12:10:25;;;;;;;6.08;5.45;;;;;;;22.57;56.85;97782.87;1661403;85;21081;-89
2021/07/02 12:12:46;;;;;;;5.70;5.12;;;;;;;22.66;57.68;97778.72;1732014;82;21399;-90
2021/07/02 12:15:39;;;;;;;;;;;;;;;;;;;;;
2021/07/02 12:18:05;;;;;;;7.95;5.67;;;;;;;22.65;56.80;97772.98;1647871;82;21328;-89
2021/07/02 12:20:44;;;;;;;;;;;;;;;;;;;;;
2021/07/02 12:23:14;;;;;;;5.15;4.65;;;;;;;23.03;56.60;97761.67;1708990;82;21722;-81
2021/07/02 12:26:00;;;;;;;6.35;5.08;;;;;;;23.40;54.99;97766.04;1742036;82;21025;-81